sensor_id;sensor_type;location;lat;lon;timestamp;P1;durP1;ratioP1;P2;durP2;ratioP2
29774;SDS011;16676;51.202;6.774;2023-04-16T00:03:32;14.35;;;7.05;;
29774;SDS011;16676;51.202;6.774;2023-04-16T00:07:35;13.02;;;7.25;;
29774;SDS011;16676;51.202;6.774;2023-04-16T00:11:37;13.23;;;6.80;;
29774;SDS011;16676;51.202;6.774;2023-04-16T00:15:39;13.70;;;6.68;;
29774;SDS011;16676;51.202;6.774;2023-04-16T00:19:41;14.73;;;7.30;;
29774;SDS011;16676;51.202;6.774;2023-04-16T00:23:44;11.93;;;6.07;;
29774;SDS011;16676;51.202;6.774;2023-04-16T00:27:46;12.43;;;6.60;;
29774;SDS011;16676;51.202;6.774;2023-04-16T00:31:48;10.70;;;6.28;;
29774;SDS011;16676;51.202;6.774;2023-04-16T00:35:50;17.42;;;6.85;;
29774;SDS011;16676;51.202;6.774;2023-04-16T00:39:53;12.38;;;6.10;;
29774;SDS011;16676;51.202;6.774;2023-04-16T00:43:55;11.73;;;5.90;;
29774;SDS011;16676;51.202;6.774;2023-04-16T00:47:57;11.20;;;5.90;;
29774;SDS011;16676;51.202;6.774;2023-04-16T00:51:59;10.98;;;6.00;;
29774;SDS011;16676;51.202;6.774;2023-04-16T00:56:05;12.73;;;5.75;;
29774;SDS011;16676;51.202;6.774;2023-04-16T01:00:07;11.23;;;5.47;;
29774;SDS011;16676;51.202;6.774;2023-04-16T01:04:10;11.68;;;5.95;;
29774;SDS011;16676;51.202;6.774;2023-04-16T01:08:14;10.38;;;5.65;;
29774;SDS011;16676;51.202;6.774;2023-04-16T01:12:19;12.40;;;5.50;;
29774;SDS011;16676;51.202;6.774;2023-04-16T01:16:21;10.32;;;5.28;;
29774;SDS011;16676;51.202;6.774;2023-04-16T01:20:23;9.20;;;5.22;;
29774;SDS011;16676;51.202;6.774;2023-04-16T01:24:27;11.27;;;5.53;;
29774;SDS011;16676;51.202;6.774;2023-04-16T01:28:29;10.20;;;5.43;;
29774;SDS011;16676;51.202;6.774;2023-04-16T01:32:30;9.38;;;5.10;;
29774;SDS011;16676;51.202;6.774;2023-04-16T01:36:32;10.05;;;5.13;;
29774;SDS011;16676;51.202;6.774;2023-04-16T01:40:36;10.13;;;5.35;;
29774;SDS011;16676;51.202;6.774;2023-04-16T01:44:38;10.25;;;5.00;;
29774;SDS011;16676;51.202;6.774;2023-04-16T01:48:40;8.95;;;5.03;;
29774;SDS011;16676;51.202;6.774;2023-04-16T01:52:42;10.30;;;5.50;;
29774;SDS011;16676;51.202;6.774;2023-04-16T01:56:46;8.52;;;5.03;;
29774;SDS011;16676;51.202;6.774;2023-04-16T02:00:48;10.40;;;4.90;;
29774;SDS011;16676;51.202;6.774;2023-04-16T02:04:50;7.75;;;4.50;;
29774;SDS011;16676;51.202;6.774;2023-04-16T02:08:52;7.00;;;4.25;;
29774;SDS011;16676;51.202;6.774;2023-04-16T02:12:55;7.70;;;4.00;;
29774;SDS011;16676;51.202;6.774;2023-04-16T02:16:57;8.02;;;4.38;;
29774;SDS011;16676;51.202;6.774;2023-04-16T02:20:59;7.60;;;4.35;;
29774;SDS011;16676;51.202;6.774;2023-04-16T02:25:01;8.52;;;4.80;;
29774;SDS011;16676;51.202;6.774;2023-04-16T02:29:04;7.13;;;4.47;;
29774;SDS011;16676;51.202;6.774;2023-04-16T02:33:07;9.90;;;4.50;;
29774;SDS011;16676;51.202;6.774;2023-04-16T02:37:11;7.50;;;4.28;;
29774;SDS011;16676;51.202;6.774;2023-04-16T02:41:14;7.40;;;4.22;;
29774;SDS011;16676;51.202;6.774;2023-04-16T02:45:17;7.03;;;4.40;;
29774;SDS011;16676;51.202;6.774;2023-04-16T02:49:20;7.45;;;4.13;;
29774;SDS011;16676;51.202;6.774;2023-04-16T02:53:22;8.85;;;4.15;;
29774;SDS011;16676;51.202;6.774;2023-04-16T02:57:23;6.30;;;3.95;;
29774;SDS011;16676;51.202;6.774;2023-04-16T03:01:27;7.88;;;4.03;;
29774;SDS011;16676;51.202;6.774;2023-04-16T03:05:29;6.95;;;4.30;;
29774;SDS011;16676;51.202;6.774;2023-04-16T03:09:31;6.22;;;3.70;;
29774;SDS011;16676;51.202;6.774;2023-04-16T03:13:33;7.95;;;3.80;;
29774;SDS011;16676;51.202;6.774;2023-04-16T03:17:36;6.32;;;3.63;;
29774;SDS011;16676;51.202;6.774;2023-04-16T03:21:38;6.47;;;3.55;;
29774;SDS011;16676;51.202;6.774;2023-04-16T03:25:40;5.20;;;3.38;;
29774;SDS011;16676;51.202;6.774;2023-04-16T03:29:45;6.75;;;3.88;;
29774;SDS011;16676;51.202;6.774;2023-04-16T03:33:49;6.30;;;3.17;;
29774;SDS011;16676;51.202;6.774;2023-04-16T03:37:51;6.80;;;3.67;;
29774;SDS011;16676;51.202;6.774;2023-04-16T03:41:53;8.00;;;3.50;;
29774;SDS011;16676;51.202;6.774;2023-04-16T03:45:54;6.88;;;3.55;;
29774;SDS011;16676;51.202;6.774;2023-04-16T03:49:58;5.78;;;3.17;;
29774;SDS011;16676;51.202;6.774;2023-04-16T03:54:00;6.13;;;3.40;;
29774;SDS011;16676;51.202;6.774;2023-04-16T03:58:01;6.47;;;3.25;;
29774;SDS011;16676;51.202;6.774;2023-04-16T04:02:04;6.35;;;3.70;;
29774;SDS011;16676;51.202;6.774;2023-04-16T04:06:07;5.70;;;3.53;;
29774;SDS011;16676;51.202;6.774;2023-04-16T04:10:09;6.22;;;3.17;;
29774;SDS011;16676;51.202;6.774;2023-04-16T04:14:11;6.15;;;3.63;;
29774;SDS011;16676;51.202;6.774;2023-04-16T04:18:13;7.70;;;3.65;;
29774;SDS011;16676;51.202;6.774;2023-04-16T04:22:16;5.90;;;3.60;;
29774;SDS011;16676;51.202;6.774;2023-04-16T04:26:18;7.20;;;3.90;;
29774;SDS011;16676;51.202;6.774;2023-04-16T04:30:20;6.10;;;3.53;;
29774;SDS011;16676;51.202;6.774;2023-04-16T04:34:22;5.68;;;3.42;;
29774;SDS011;16676;51.202;6.774;2023-04-16T04:38:25;5.28;;;3.25;;
29774;SDS011;16676;51.202;6.774;2023-04-16T04:42:27;5.93;;;3.30;;
29774;SDS011;16676;51.202;6.774;2023-04-16T04:46:29;5.07;;;3.45;;
29774;SDS011;16676;51.202;6.774;2023-04-16T04:50:31;5.32;;;3.13;;
29774;SDS011;16676;51.202;6.774;2023-04-16T04:54:34;5.60;;;3.10;;
29774;SDS011;16676;51.202;6.774;2023-04-16T04:58:40;5.40;;;3.05;;
29774;SDS011;16676;51.202;6.774;2023-04-16T05:02:42;5.20;;;3.03;;
29774;SDS011;16676;51.202;6.774;2023-04-16T05:06:44;4.53;;;2.92;;
29774;SDS011;16676;51.202;6.774;2023-04-16T05:10:47;6.78;;;3.35;;
29774;SDS011;16676;51.202;6.774;2023-04-16T05:14:49;5.50;;;3.40;;
29774;SDS011;16676;51.202;6.774;2023-04-16T05:18:51;7.28;;;3.40;;
29774;SDS011;16676;51.202;6.774;2023-04-16T05:22:55;4.40;;;3.03;;
29774;SDS011;16676;51.202;6.774;2023-04-16T05:26:58;4.63;;;3.00;;
29774;SDS011;16676;51.202;6.774;2023-04-16T05:31:00;5.15;;;3.00;;
29774;SDS011;16676;51.202;6.774;2023-04-16T05:35:02;5.75;;;3.50;;
29774;SDS011;16676;51.202;6.774;2023-04-16T05:39:04;4.75;;;3.05;;
29774;SDS011;16676;51.202;6.774;2023-04-16T05:43:08;5.15;;;2.90;;
29774;SDS011;16676;51.202;6.774;2023-04-16T05:47:10;5.03;;;3.03;;
29774;SDS011;16676;51.202;6.774;2023-04-16T05:51:12;4.45;;;2.88;;
29774;SDS011;16676;51.202;6.774;2023-04-16T05:55:14;5.97;;;3.08;;
29774;SDS011;16676;51.202;6.774;2023-04-16T05:59:17;4.13;;;2.65;;
29774;SDS011;16676;51.202;6.774;2023-04-16T06:03:19;5.22;;;2.95;;
29774;SDS011;16676;51.202;6.774;2023-04-16T06:07:21;6.45;;;3.38;;
29774;SDS011;16676;51.202;6.774;2023-04-16T06:11:23;4.55;;;2.63;;
29774;SDS011;16676;51.202;6.774;2023-04-16T06:15:28;5.40;;;3.10;;
29774;SDS011;16676;51.202;6.774;2023-04-16T06:19:30;5.18;;;2.90;;
29774;SDS011;16676;51.202;6.774;2023-04-16T06:23:32;4.80;;;3.10;;
29774;SDS011;16676;51.202;6.774;2023-04-16T06:27:33;5.55;;;2.90;;
29774;SDS011;16676;51.202;6.774;2023-04-16T06:31:37;4.25;;;2.97;;
29774;SDS011;16676;51.202;6.774;2023-04-16T06:35:40;4.80;;;3.00;;
29774;SDS011;16676;51.202;6.774;2023-04-16T06:39:41;3.85;;;2.75;;
29774;SDS011;16676;51.202;6.774;2023-04-16T06:43:43;5.40;;;2.97;;
29774;SDS011;16676;51.202;6.774;2023-04-16T06:47:47;4.95;;;3.13;;
29774;SDS011;16676;51.202;6.774;2023-04-16T06:51:50;5.97;;;2.90;;
29774;SDS011;16676;51.202;6.774;2023-04-16T06:55:52;4.35;;;2.97;;
29774;SDS011;16676;51.202;6.774;2023-04-16T06:59:54;5.47;;;3.00;;
29774;SDS011;16676;51.202;6.774;2023-04-16T07:03:57;4.47;;;2.83;;
29774;SDS011;16676;51.202;6.774;2023-04-16T07:07:59;4.25;;;3.03;;
29774;SDS011;16676;51.202;6.774;2023-04-16T07:12:01;5.57;;;3.22;;
29774;SDS011;16676;51.202;6.774;2023-04-16T07:16:03;5.30;;;2.67;;
29774;SDS011;16676;51.202;6.774;2023-04-16T07:20:07;4.88;;;3.22;;
29774;SDS011;16676;51.202;6.774;2023-04-16T07:24:10;4.63;;;2.95;;
29774;SDS011;16676;51.202;6.774;2023-04-16T07:28:12;5.80;;;3.33;;
29774;SDS011;16676;51.202;6.774;2023-04-16T07:32:15;5.40;;;3.25;;
29774;SDS011;16676;51.202;6.774;2023-04-16T07:36:19;6.22;;;3.50;;
29774;SDS011;16676;51.202;6.774;2023-04-16T07:40:21;6.10;;;3.50;;
29774;SDS011;16676;51.202;6.774;2023-04-16T07:44:24;6.38;;;3.70;;
29774;SDS011;16676;51.202;6.774;2023-04-16T07:48:26;6.43;;;3.50;;
29774;SDS011;16676;51.202;6.774;2023-04-16T07:52:30;5.55;;;3.33;;
29774;SDS011;16676;51.202;6.774;2023-04-16T07:56:32;4.75;;;3.28;;
29774;SDS011;16676;51.202;6.774;2023-04-16T08:00:34;7.60;;;4.07;;
29774;SDS011;16676;51.202;6.774;2023-04-16T08:04:36;13.40;;;4.85;;
29774;SDS011;16676;51.202;6.774;2023-04-16T08:08:39;11.10;;;5.80;;
29774;SDS011;16676;51.202;6.774;2023-04-16T08:12:41;14.32;;;8.02;;
29774;SDS011;16676;51.202;6.774;2023-04-16T08:16:43;15.57;;;10.40;;
29774;SDS011;16676;51.202;6.774;2023-04-16T08:20:45;25.00;;;13.52;;
29774;SDS011;16676;51.202;6.774;2023-04-16T08:24:48;21.95;;;13.90;;
29774;SDS011;16676;51.202;6.774;2023-04-16T08:28:50;24.83;;;15.68;;
29774;SDS011;16676;51.202;6.774;2023-04-16T08:32:52;20.25;;;14.57;;
29774;SDS011;16676;51.202;6.774;2023-04-16T08:36:55;26.17;;;15.68;;
29774;SDS011;16676;51.202;6.774;2023-04-16T08:40:58;23.85;;;15.00;;
29774;SDS011;16676;51.202;6.774;2023-04-16T08:45:05;23.88;;;15.93;;
29774;SDS011;16676;51.202;6.774;2023-04-16T08:49:09;22.13;;;14.38;;
29774;SDS011;16676;51.202;6.774;2023-04-16T08:53:17;22.92;;;14.82;;
29774;SDS011;16676;51.202;6.774;2023-04-16T08:57:24;24.48;;;16.00;;
29774;SDS011;16676;51.202;6.774;2023-04-16T09:01:31;22.92;;;14.68;;
29774;SDS011;16676;51.202;6.774;2023-04-16T09:05:33;23.77;;;15.55;;
29774;SDS011;16676;51.202;6.774;2023-04-16T09:09:35;22.58;;;15.07;;
29774;SDS011;16676;51.202;6.774;2023-04-16T09:13:40;24.33;;;14.98;;
29774;SDS011;16676;51.202;6.774;2023-04-16T09:17:42;22.60;;;14.43;;
29774;SDS011;16676;51.202;6.774;2023-04-16T09:21:44;20.15;;;14.52;;
29774;SDS011;16676;51.202;6.774;2023-04-16T09:25:47;20.52;;;14.40;;
29774;SDS011;16676;51.202;6.774;2023-04-16T09:29:51;21.23;;;13.43;;
29774;SDS011;16676;51.202;6.774;2023-04-16T09:34:02;23.95;;;14.52;;
29774;SDS011;16676;51.202;6.774;2023-04-16T09:38:05;23.45;;;14.70;;
29774;SDS011;16676;51.202;6.774;2023-04-16T09:42:07;20.17;;;14.43;;
29774;SDS011;16676;51.202;6.774;2023-04-16T09:46:11;20.55;;;13.27;;
29774;SDS011;16676;51.202;6.774;2023-04-16T09:50:13;22.98;;;12.80;;
29774;SDS011;16676;51.202;6.774;2023-04-16T09:54:16;19.55;;;12.70;;
29774;SDS011;16676;51.202;6.774;2023-04-16T09:58:20;18.00;;;11.48;;
29774;SDS011;16676;51.202;6.774;2023-04-16T10:02:26;17.42;;;11.27;;
29774;SDS011;16676;51.202;6.774;2023-04-16T10:06:29;22.65;;;12.27;;
29774;SDS011;16676;51.202;6.774;2023-04-16T10:10:30;17.75;;;11.50;;
29774;SDS011;16676;51.202;6.774;2023-04-16T10:14:32;17.92;;;12.15;;
29774;SDS011;16676;51.202;6.774;2023-04-16T10:18:36;16.30;;;11.10;;
29774;SDS011;16676;51.202;6.774;2023-04-16T10:22:39;23.77;;;12.57;;
29774;SDS011;16676;51.202;6.774;2023-04-16T10:26:43;19.65;;;11.90;;
29774;SDS011;16676;51.202;6.774;2023-04-16T10:30:46;15.90;;;10.77;;
29774;SDS011;16676;51.202;6.774;2023-04-16T10:34:54;17.15;;;10.85;;
29774;SDS011;16676;51.202;6.774;2023-04-16T10:38:56;22.27;;;11.23;;
29774;SDS011;16676;51.202;6.774;2023-04-16T10:42:59;18.30;;;11.23;;
29774;SDS011;16676;51.202;6.774;2023-04-16T10:47:01;25.90;;;10.80;;
29774;SDS011;16676;51.202;6.774;2023-04-16T10:51:21;20.20;;;11.00;;
29774;SDS011;16676;51.202;6.774;2023-04-16T10:55:25;23.00;;;11.30;;
29774;SDS011;16676;51.202;6.774;2023-04-16T10:59:29;19.05;;;10.73;;
29774;SDS011;16676;51.202;6.774;2023-04-16T11:03:32;16.02;;;10.10;;
29774;SDS011;16676;51.202;6.774;2023-04-16T11:07:36;18.45;;;11.20;;
29774;SDS011;16676;51.202;6.774;2023-04-16T11:11:38;26.83;;;15.63;;
29774;SDS011;16676;51.202;6.774;2023-04-16T11:15:40;31.15;;;16.13;;
29774;SDS011;16676;51.202;6.774;2023-04-16T11:19:42;41.25;;;18.83;;
29774;SDS011;16676;51.202;6.774;2023-04-16T11:23:46;32.38;;;18.45;;
29774;SDS011;16676;51.202;6.774;2023-04-16T11:27:49;35.70;;;19.98;;
29774;SDS011;16676;51.202;6.774;2023-04-16T11:31:52;31.70;;;18.17;;
29774;SDS011;16676;51.202;6.774;2023-04-16T11:35:55;32.08;;;17.27;;
29774;SDS011;16676;51.202;6.774;2023-04-16T11:39:59;27.48;;;16.98;;
29774;SDS011;16676;51.202;6.774;2023-04-16T11:44:15;31.88;;;17.23;;
29774;SDS011;16676;51.202;6.774;2023-04-16T11:48:17;29.20;;;16.10;;
29774;SDS011;16676;51.202;6.774;2023-04-16T11:52:26;25.45;;;14.77;;
29774;SDS011;16676;51.202;6.774;2023-04-16T11:56:31;26.13;;;14.50;;
29774;SDS011;16676;51.202;6.774;2023-04-16T12:00:34;24.88;;;14.77;;
29774;SDS011;16676;51.202;6.774;2023-04-16T12:04:36;25.05;;;15.00;;
29774;SDS011;16676;51.202;6.774;2023-04-16T12:08:38;23.88;;;13.88;;
29774;SDS011;16676;51.202;6.774;2023-04-16T12:12:42;22.88;;;14.40;;
29774;SDS011;16676;51.202;6.774;2023-04-16T12:16:44;24.90;;;13.48;;
29774;SDS011;16676;51.202;6.774;2023-04-16T12:20:46;20.88;;;13.50;;
29774;SDS011;16676;51.202;6.774;2023-04-16T12:24:48;21.75;;;13.18;;
29774;SDS011;16676;51.202;6.774;2023-04-16T12:28:51;19.05;;;12.93;;
29774;SDS011;16676;51.202;6.774;2023-04-16T12:37:16;23.02;;;12.45;;
29774;SDS011;16676;51.202;6.774;2023-04-16T12:41:18;23.35;;;12.95;;
29774;SDS011;16676;51.202;6.774;2023-04-16T12:45:23;21.08;;;13.13;;
29774;SDS011;16676;51.202;6.774;2023-04-16T12:49:25;18.15;;;11.63;;
29774;SDS011;16676;51.202;6.774;2023-04-16T12:53:26;21.90;;;13.02;;
29774;SDS011;16676;51.202;6.774;2023-04-16T12:57:28;20.02;;;12.27;;
29774;SDS011;16676;51.202;6.774;2023-04-16T13:01:32;18.75;;;12.23;;
29774;SDS011;16676;51.202;6.774;2023-04-16T13:05:36;17.38;;;10.95;;
29774;SDS011;16676;51.202;6.774;2023-04-16T13:09:38;15.95;;;11.15;;
29774;SDS011;16676;51.202;6.774;2023-04-16T13:13:40;16.45;;;11.48;;
29774;SDS011;16676;51.202;6.774;2023-04-16T13:17:43;16.98;;;11.25;;
29774;SDS011;16676;51.202;6.774;2023-04-16T13:21:45;13.75;;;9.98;;
29774;SDS011;16676;51.202;6.774;2023-04-16T13:25:47;16.00;;;10.32;;
29774;SDS011;16676;51.202;6.774;2023-04-16T13:29:49;19.85;;;11.10;;
29774;SDS011;16676;51.202;6.774;2023-04-16T13:33:52;18.70;;;11.13;;
29774;SDS011;16676;51.202;6.774;2023-04-16T13:37:55;17.73;;;10.40;;
29774;SDS011;16676;51.202;6.774;2023-04-16T13:41:57;17.45;;;11.55;;
29774;SDS011;16676;51.202;6.774;2023-04-16T13:45:59;16.52;;;10.23;;
29774;SDS011;16676;51.202;6.774;2023-04-16T13:50:02;16.02;;;10.77;;
29774;SDS011;16676;51.202;6.774;2023-04-16T13:54:05;17.20;;;11.02;;
29774;SDS011;16676;51.202;6.774;2023-04-16T13:58:07;16.23;;;10.38;;
29774;SDS011;16676;51.202;6.774;2023-04-16T14:02:10;16.08;;;10.43;;
29774;SDS011;16676;51.202;6.774;2023-04-16T14:06:13;15.30;;;10.07;;
29774;SDS011;16676;51.202;6.774;2023-04-16T14:10:17;15.45;;;9.13;;
29774;SDS011;16676;51.202;6.774;2023-04-16T14:14:19;13.88;;;9.27;;
29774;SDS011;16676;51.202;6.774;2023-04-16T14:18:21;14.05;;;9.50;;
29774;SDS011;16676;51.202;6.774;2023-04-16T14:22:24;15.27;;;9.82;;
29774;SDS011;16676;51.202;6.774;2023-04-16T14:26:26;13.13;;;8.85;;
29774;SDS011;16676;51.202;6.774;2023-04-16T14:30:28;13.68;;;9.35;;
29774;SDS011;16676;51.202;6.774;2023-04-16T14:34:30;14.85;;;9.35;;
29774;SDS011;16676;51.202;6.774;2023-04-16T14:38:33;12.85;;;8.55;;
29774;SDS011;16676;51.202;6.774;2023-04-16T14:42:35;14.20;;;8.38;;
29774;SDS011;16676;51.202;6.774;2023-04-16T14:46:37;16.15;;;9.02;;
29774;SDS011;16676;51.202;6.774;2023-04-16T14:50:40;12.88;;;8.45;;
29774;SDS011;16676;51.202;6.774;2023-04-16T14:54:44;14.23;;;8.82;;
29774;SDS011;16676;51.202;6.774;2023-04-16T14:58:47;13.32;;;8.27;;
29774;SDS011;16676;51.202;6.774;2023-04-16T15:02:49;15.15;;;8.43;;
29774;SDS011;16676;51.202;6.774;2023-04-16T15:06:51;12.27;;;8.75;;
29774;SDS011;16676;51.202;6.774;2023-04-16T15:10:54;14.25;;;8.10;;
29774;SDS011;16676;51.202;6.774;2023-04-16T15:14:56;13.10;;;7.93;;
29774;SDS011;16676;51.202;6.774;2023-04-16T15:18:59;14.27;;;8.43;;
29774;SDS011;16676;51.202;6.774;2023-04-16T15:23:00;14.65;;;8.50;;
29774;SDS011;16676;51.202;6.774;2023-04-16T15:27:04;12.65;;;8.43;;
29774;SDS011;16676;51.202;6.774;2023-04-16T15:31:06;12.75;;;8.27;;
29774;SDS011;16676;51.202;6.774;2023-04-16T15:35:08;14.13;;;8.07;;
29774;SDS011;16676;51.202;6.774;2023-04-16T15:39:10;19.90;;;8.25;;
29774;SDS011;16676;51.202;6.774;2023-04-16T15:43:14;14.95;;;8.80;;
29774;SDS011;16676;51.202;6.774;2023-04-16T15:47:16;14.05;;;8.55;;
29774;SDS011;16676;51.202;6.774;2023-04-16T15:51:18;15.75;;;9.82;;
29774;SDS011;16676;51.202;6.774;2023-04-16T15:55:20;14.75;;;8.90;;
29774;SDS011;16676;51.202;6.774;2023-04-16T15:59:23;15.90;;;9.45;;
29774;SDS011;16676;51.202;6.774;2023-04-16T16:03:25;13.00;;;9.15;;
29774;SDS011;16676;51.202;6.774;2023-04-16T16:07:27;15.25;;;9.85;;
29774;SDS011;16676;51.202;6.774;2023-04-16T16:11:29;13.68;;;9.55;;
29774;SDS011;16676;51.202;6.774;2023-04-16T16:15:34;14.90;;;10.00;;
29774;SDS011;16676;51.202;6.774;2023-04-16T16:19:36;20.70;;;12.77;;
29774;SDS011;16676;51.202;6.774;2023-04-16T16:23:38;14.55;;;11.05;;
29774;SDS011;16676;51.202;6.774;2023-04-16T16:27:40;15.20;;;11.05;;
29774;SDS011;16676;51.202;6.774;2023-04-16T16:31:43;15.80;;;10.80;;
29774;SDS011;16676;51.202;6.774;2023-04-16T16:35:45;15.60;;;10.82;;
29774;SDS011;16676;51.202;6.774;2023-04-16T16:39:46;16.55;;;10.63;;
29774;SDS011;16676;51.202;6.774;2023-04-16T16:43:49;15.70;;;10.60;;
29774;SDS011;16676;51.202;6.774;2023-04-16T16:47:56;16.50;;;11.52;;
29774;SDS011;16676;51.202;6.774;2023-04-16T16:51:59;17.25;;;11.20;;
29774;SDS011;16676;51.202;6.774;2023-04-16T16:56:00;18.17;;;10.90;;
29774;SDS011;16676;51.202;6.774;2023-04-16T17:00:03;17.88;;;11.35;;
29774;SDS011;16676;51.202;6.774;2023-04-16T17:04:11;22.80;;;10.65;;
29774;SDS011;16676;51.202;6.774;2023-04-16T17:08:13;13.50;;;9.50;;
29774;SDS011;16676;51.202;6.774;2023-04-16T17:12:15;17.42;;;9.68;;
29774;SDS011;16676;51.202;6.774;2023-04-16T17:16:17;17.98;;;9.50;;
29774;SDS011;16676;51.202;6.774;2023-04-16T17:20:20;17.13;;;9.48;;
29774;SDS011;16676;51.202;6.774;2023-04-16T17:24:22;22.55;;;10.90;;
29774;SDS011;16676;51.202;6.774;2023-04-16T17:28:25;32.78;;;13.15;;
29774;SDS011;16676;51.202;6.774;2023-04-16T17:32:27;33.45;;;14.18;;
29774;SDS011;16676;51.202;6.774;2023-04-16T17:36:32;30.52;;;14.93;;
29774;SDS011;16676;51.202;6.774;2023-04-16T17:40:34;33.72;;;16.05;;
29774;SDS011;16676;51.202;6.774;2023-04-16T17:44:36;33.97;;;16.02;;
29774;SDS011;16676;51.202;6.774;2023-04-16T17:48:38;34.78;;;14.93;;
29774;SDS011;16676;51.202;6.774;2023-04-16T17:52:41;24.05;;;13.48;;
29774;SDS011;16676;51.202;6.774;2023-04-16T17:56:43;28.75;;;13.55;;
29774;SDS011;16676;51.202;6.774;2023-04-16T18:00:45;38.30;;;15.57;;
29774;SDS011;16676;51.202;6.774;2023-04-16T18:04:48;30.50;;;15.57;;
29774;SDS011;16676;51.202;6.774;2023-04-16T18:08:51;26.65;;;14.15;;
29774;SDS011;16676;51.202;6.774;2023-04-16T18:12:53;35.80;;;14.77;;
29774;SDS011;16676;51.202;6.774;2023-04-16T18:16:55;28.92;;;14.13;;
29774;SDS011;16676;51.202;6.774;2023-04-16T18:20:57;27.60;;;13.85;;
29774;SDS011;16676;51.202;6.774;2023-04-16T18:25:00;26.10;;;12.85;;
29774;SDS011;16676;51.202;6.774;2023-04-16T18:29:02;28.85;;;13.02;;
29774;SDS011;16676;51.202;6.774;2023-04-16T18:33:04;28.27;;;13.05;;
29774;SDS011;16676;51.202;6.774;2023-04-16T18:37:06;25.65;;;13.23;;
29774;SDS011;16676;51.202;6.774;2023-04-16T18:41:15;25.33;;;12.20;;
29774;SDS011;16676;51.202;6.774;2023-04-16T18:45:17;24.83;;;11.77;;
29774;SDS011;16676;51.202;6.774;2023-04-16T18:49:19;23.52;;;12.88;;
29774;SDS011;16676;51.202;6.774;2023-04-16T18:53:21;24.90;;;12.30;;
29774;SDS011;16676;51.202;6.774;2023-04-16T18:57:24;21.90;;;11.85;;
29774;SDS011;16676;51.202;6.774;2023-04-16T19:01:26;20.25;;;11.98;;
29774;SDS011;16676;51.202;6.774;2023-04-16T19:05:28;20.13;;;11.63;;
29774;SDS011;16676;51.202;6.774;2023-04-16T19:09:30;21.80;;;11.60;;
29774;SDS011;16676;51.202;6.774;2023-04-16T19:13:33;17.05;;;10.55;;
29774;SDS011;16676;51.202;6.774;2023-04-16T19:17:35;20.40;;;10.48;;
29774;SDS011;16676;51.202;6.774;2023-04-16T19:21:39;23.92;;;11.45;;
29774;SDS011;16676;51.202;6.774;2023-04-16T19:25:41;22.10;;;10.85;;
29774;SDS011;16676;51.202;6.774;2023-04-16T19:29:44;18.75;;;10.48;;
29774;SDS011;16676;51.202;6.774;2023-04-16T19:33:46;21.15;;;11.77;;
29774;SDS011;16676;51.202;6.774;2023-04-16T19:37:48;21.33;;;10.93;;
29774;SDS011;16676;51.202;6.774;2023-04-16T19:41:50;20.48;;;10.63;;
29774;SDS011;16676;51.202;6.774;2023-04-16T19:45:53;19.45;;;11.35;;
29774;SDS011;16676;51.202;6.774;2023-04-16T19:49:55;21.50;;;10.63;;
29774;SDS011;16676;51.202;6.774;2023-04-16T19:53:57;39.00;;;12.27;;
29774;SDS011;16676;51.202;6.774;2023-04-16T19:58:00;29.42;;;11.85;;
29774;SDS011;16676;51.202;6.774;2023-04-16T20:02:07;33.53;;;12.57;;
29774;SDS011;16676;51.202;6.774;2023-04-16T20:06:09;34.20;;;11.48;;
29774;SDS011;16676;51.202;6.774;2023-04-16T20:10:10;29.67;;;11.05;;
29774;SDS011;16676;51.202;6.774;2023-04-16T20:14:12;38.28;;;11.52;;
29774;SDS011;16676;51.202;6.774;2023-04-16T20:18:16;31.00;;;11.65;;
29774;SDS011;16676;51.202;6.774;2023-04-16T20:22:18;32.72;;;11.25;;
29774;SDS011;16676;51.202;6.774;2023-04-16T20:26:20;28.75;;;11.10;;
29774;SDS011;16676;51.202;6.774;2023-04-16T20:30:23;33.42;;;11.20;;
29774;SDS011;16676;51.202;6.774;2023-04-16T20:34:29;29.40;;;10.57;;
29774;SDS011;16676;51.202;6.774;2023-04-16T20:38:31;33.42;;;11.27;;
29774;SDS011;16676;51.202;6.774;2023-04-16T20:42:34;25.23;;;9.95;;
29774;SDS011;16676;51.202;6.774;2023-04-16T20:46:36;24.27;;;9.90;;
29774;SDS011;16676;51.202;6.774;2023-04-16T20:50:40;24.85;;;10.45;;
29774;SDS011;16676;51.202;6.774;2023-04-16T20:54:41;21.77;;;10.23;;
29774;SDS011;16676;51.202;6.774;2023-04-16T20:58:43;28.73;;;10.30;;
29774;SDS011;16676;51.202;6.774;2023-04-16T21:02:45;22.20;;;10.05;;
29774;SDS011;16676;51.202;6.774;2023-04-16T21:06:48;24.55;;;10.15;;
29774;SDS011;16676;51.202;6.774;2023-04-16T21:10:52;21.50;;;9.25;;
29774;SDS011;16676;51.202;6.774;2023-04-16T21:14:54;24.88;;;9.75;;
29774;SDS011;16676;51.202;6.774;2023-04-16T21:18:57;26.10;;;9.80;;
29774;SDS011;16676;51.202;6.774;2023-04-16T21:23:00;19.52;;;9.75;;
29774;SDS011;16676;51.202;6.774;2023-04-16T21:27:02;14.88;;;8.95;;
29774;SDS011;16676;51.202;6.774;2023-04-16T21:31:04;19.90;;;9.63;;
29774;SDS011;16676;51.202;6.774;2023-04-16T21:35:06;19.20;;;9.13;;
29774;SDS011;16676;51.202;6.774;2023-04-16T21:39:10;16.17;;;8.75;;
29774;SDS011;16676;51.202;6.774;2023-04-16T21:43:13;21.92;;;9.52;;
29774;SDS011;16676;51.202;6.774;2023-04-16T21:47:15;16.10;;;8.70;;
29774;SDS011;16676;51.202;6.774;2023-04-16T21:51:17;17.33;;;8.48;;
29774;SDS011;16676;51.202;6.774;2023-04-16T21:55:20;17.75;;;9.32;;
29774;SDS011;16676;51.202;6.774;2023-04-16T21:59:23;16.10;;;8.73;;
29774;SDS011;16676;51.202;6.774;2023-04-16T22:03:24;15.90;;;8.18;;
29774;SDS011;16676;51.202;6.774;2023-04-16T22:07:29;13.68;;;7.65;;
29774;SDS011;16676;51.202;6.774;2023-04-16T22:11:32;15.68;;;8.80;;
29774;SDS011;16676;51.202;6.774;2023-04-16T22:15:34;15.23;;;8.55;;
29774;SDS011;16676;51.202;6.774;2023-04-16T22:19:36;14.82;;;8.40;;
29774;SDS011;16676;51.202;6.774;2023-04-16T22:23:39;19.63;;;8.75;;
29774;SDS011;16676;51.202;6.774;2023-04-16T22:27:42;15.80;;;8.45;;
29774;SDS011;16676;51.202;6.774;2023-04-16T22:31:44;19.55;;;8.68;;
29774;SDS011;16676;51.202;6.774;2023-04-16T22:35:46;13.98;;;8.15;;
29774;SDS011;16676;51.202;6.774;2023-04-16T22:39:47;13.50;;;8.40;;
29774;SDS011;16676;51.202;6.774;2023-04-16T22:43:51;15.07;;;9.20;;
29774;SDS011;16676;51.202;6.774;2023-04-16T22:47:53;17.45;;;8.95;;
29774;SDS011;16676;51.202;6.774;2023-04-16T22:51:55;14.18;;;8.82;;
29774;SDS011;16676;51.202;6.774;2023-04-16T22:55:56;14.82;;;8.27;;
29774;SDS011;16676;51.202;6.774;2023-04-16T23:00:00;15.73;;;8.57;;
29774;SDS011;16676;51.202;6.774;2023-04-16T23:04:06;14.10;;;8.30;;
29774;SDS011;16676;51.202;6.774;2023-04-16T23:08:08;12.70;;;8.02;;
29774;SDS011;16676;51.202;6.774;2023-04-16T23:12:10;14.20;;;8.10;;
29774;SDS011;16676;51.202;6.774;2023-04-16T23:16:13;13.68;;;9.10;;
29774;SDS011;16676;51.202;6.774;2023-04-16T23:20:15;14.65;;;9.25;;
29774;SDS011;16676;51.202;6.774;2023-04-16T23:24:17;12.50;;;8.70;;
29774;SDS011;16676;51.202;6.774;2023-04-16T23:28:19;16.35;;;9.07;;
29774;SDS011;16676;51.202;6.774;2023-04-16T23:32:22;13.02;;;8.25;;
29774;SDS011;16676;51.202;6.774;2023-04-16T23:36:24;13.60;;;9.00;;
29774;SDS011;16676;51.202;6.774;2023-04-16T23:40:26;14.90;;;8.30;;
29774;SDS011;16676;51.202;6.774;2023-04-16T23:44:28;14.13;;;8.90;;
29774;SDS011;16676;51.202;6.774;2023-04-16T23:48:32;14.82;;;9.40;;
29774;SDS011;16676;51.202;6.774;2023-04-16T23:52:34;17.13;;;9.18;;
29774;SDS011;16676;51.202;6.774;2023-04-16T23:56:35;12.13;;;8.70;;
